Time;durP1;ratioP1;P1;durP2;ratioP2;P2;SDS_P1;SDS_P2;PMS_P1;PMS_P2;Temp;Humidity;BMP_temperature;BMP_pressure;BME280_temperature;BME280_humidity;BME280_pressure;Samples;Min_cycle;Max_cycle;Signal;HPM_P1;HPM_P2
2021/11/08 00:00:51;;;;;;;36.28;10.15;;;9.80;78.20;;;;;;5078888;28;20287;-79
2021/11/08 00:03:20;;;;;;;31.75;9.63;;;9.70;78.00;;;;;;5077588;28;20256;-80
2021/11/08 00:05:46;;;;;;;21.35;9.18;;;9.70;78.10;;;;;;5079248;28;20592;-79
2021/11/08 00:08:14;;;;;;;24.50;8.50;;;9.70;77.50;;;;;;5079087;28;20177;-80
2021/11/08 00:10:41;;;;;;;37.10;9.90;;;9.60;77.50;;;;;;5080126;28;20439;-79
2021/11/08 00:13:08;;;;;;;35.88;11.93;;;9.40;77.80;;;;;;5078123;28;20866;-79
2021/11/08 00:15:45;;;;;;;27.98;8.98;;;9.40;78.10;;;;;;5079227;28;20173;-79
2021/11/08 00:18:22;;;;;;;38.13;9.25;;;9.40;78.30;;;;;;5079806;28;20560;-80
2021/11/08 00:20:50;;;;;;;33.88;8.43;;;9.40;78.40;;;;;;5079591;28;20219;-79
2021/11/08 00:23:16;;;;;;;32.28;9.18;;;9.30;78.60;;;;;;5078612;28;20196;-80
2021/11/08 00:25:43;;;;;;;24.90;9.63;;;9.30;78.70;;;;;;5079916;28;20176;-80
2021/11/08 00:28:10;;;;;;;31.98;9.65;;;9.40;78.70;;;;;;5078728;28;20184;-79
2021/11/08 00:30:38;;;;;;;25.02;9.30;;;9.60;78.60;;;;;;5079639;28;20180;-80
2021/11/08 00:33:05;;;;;;;33.63;9.60;;;9.70;78.30;;;;;;5079816;28;20177;-80
2021/11/08 00:35:31;;;;;;;25.27;8.63;;;9.70;78.00;;;;;;5079510;28;20627;-80
2021/11/08 00:37:57;;;;;;;33.53;9.50;;;9.50;78.10;;;;;;5079254;28;20184;-80
2021/11/08 00:40:22;;;;;;;25.53;9.07;;;9.50;78.40;;;;;;5077916;28;20407;-80
2021/11/08 00:42:48;;;;;;;31.57;8.90;;;9.60;78.60;;;;;;5079653;28;20176;-79
2021/11/08 00:45:14;;;;;;;29.90;9.30;;;9.90;78.40;;;;;;5079319;28;20284;-80
2021/11/08 00:47:40;;;;;;;34.53;9.60;;;10.10;77.60;;;;;;5078954;28;20176;-80
2021/11/08 00:50:08;;;;;;;37.83;9.80;;;9.90;77.20;;;;;;5077915;28;20164;-80
2021/11/08 00:52:34;;;;;;;24.17;9.77;;;10.10;77.10;;;;;;5078081;28;20422;-80
2021/11/08 00:55:01;;;;;;;34.42;8.52;;;10.00;77.00;;;;;;5098248;28;20690;-80
2021/11/08 00:57:32;;;;;;;20.98;7.97;;;10.10;76.80;;;;;;5084879;28;20184;-80
2021/11/08 00:59:59;;;;;;;25.55;8.68;;;10.00;76.60;;;;;;5079397;28;20196;-80
2021/11/08 01:02:26;;;;;;;32.63;8.60;;;10.00;76.60;;;;;;5078051;28;20231;-80
2021/11/08 01:04:54;;;;;;;34.38;8.18;;;9.80;76.70;;;;;;5079886;28;20543;-80
2021/11/08 01:07:20;;;;;;;27.80;8.23;;;9.70;77.10;;;;;;5078242;28;20263;-80
2021/11/08 01:09:47;;;;;;;38.88;9.05;;;10.00;77.00;;;;;;5077740;28;20259;-80
2021/11/08 01:12:13;;;;;;;29.17;9.02;;;10.00;76.40;;;;;;5087038;28;20171;-79
2021/11/08 01:14:40;;;;;;;18.55;7.85;;;10.00;76.50;;;;;;5098070;28;20200;-79
2021/11/08 01:17:08;;;;;;;24.27;8.98;;;9.90;76.70;;;;;;5077976;28;20176;-79
2021/11/08 01:19:34;;;;;;;22.88;8.20;;;10.00;77.00;;;;;;5098349;28;20183;-80
2021/11/08 01:22:06;;;;;;;26.10;8.23;;;10.00;76.90;;;;;;5099928;28;20211;-80
2021/11/08 01:24:38;;;;;;;26.42;9.55;;;9.80;77.10;;;;;;5100165;28;20469;-80
2021/11/08 01:27:04;;;;;;;30.48;9.02;;;9.90;77.50;;;;;;5101642;28;20168;-79
2021/11/08 01:29:32;;;;;;;25.75;7.90;;;9.90;77.60;;;;;;5101261;28;20176;-81
2021/11/08 01:32:00;;;;;;;19.25;7.72;;;9.90;77.50;;;;;;5098544;28;20256;-80
2021/11/08 01:34:30;;;;;;;26.48;7.78;;;10.00;77.30;;;;;;5100147;28;20185;-81
2021/11/08 01:36:59;;;;;;;27.42;8.70;;;9.90;77.10;;;;;;5093842;28;20219;-81
2021/11/08 01:39:36;;;;;;;22.52;7.25;;;9.70;77.20;;;;;;5093801;28;20260;-80
2021/11/08 01:42:09;;;;;;;24.60;7.43;;;9.70;77.50;;;;;;5090542;28;20223;-80
2021/11/08 01:44:34;;;;;;;21.45;7.07;;;9.70;77.50;;;;;;5085714;28;20208;-80
2021/11/08 01:47:03;;;;;;;23.77;8.53;;;9.60;77.60;;;;;;5082422;28;20187;-80
2021/11/08 01:49:29;;;;;;;25.90;8.52;;;9.70;77.90;;;;;;5088816;28;20191;-80
2021/11/08 01:51:57;;;;;;;27.55;9.80;;;9.70;77.90;;;;;;5097206;28;20177;-80
2021/11/08 01:54:24;;;;;;;22.77;7.20;;;9.60;77.70;;;;;;5094030;28;20198;-80
2021/11/08 01:56:52;;;;;;;27.77;8.30;;;9.60;77.90;;;;;;5093025;28;20187;-80
2021/11/08 01:59:20;;;;;;;26.75;8.75;;;9.60;77.90;;;;;;5097273;28;20201;-80
2021/11/08 02:01:46;;;;;;;27.77;8.05;;;9.70;77.90;;;;;;5098382;28;20707;-81
2021/11/08 02:04:13;;;;;;;28.77;8.73;;;9.50;78.10;;;;;;5097729;28;20195;-80
2021/11/08 02:06:39;;;;;;;28.73;8.75;;;9.40;78.40;;;;;;5094021;28;20176;-80
2021/11/08 02:09:06;;;;;;;29.08;7.38;;;9.40;78.60;;;;;;5079474;28;20168;-80
2021/11/08 02:11:35;;;;;;;28.35;8.02;;;9.40;78.80;;;;;;5079412;28;20172;-80
2021/11/08 02:14:02;;;;;;;26.15;9.43;;;9.50;79.10;;;;;;5120709;28;20211;-81
2021/11/08 02:16:28;;;;;;;22.67;8.38;;;9.50;79.00;;;;;;5121228;28;20194;-80
2021/11/08 02:18:56;;;;;;;25.48;7.25;;;9.40;79.00;;;;;;5128624;28;20205;-80
2021/11/08 02:21:22;;;;;;;21.10;6.10;;;9.60;79.10;;;;;;5131601;28;20293;-80
2021/11/08 02:23:50;;;;;;;21.40;7.03;;;9.60;78.90;;;;;;5112776;28;20222;-81
2021/11/08 02:26:17;;;;;;;23.50;7.45;;;9.50;78.90;;;;;;5108864;28;20196;-81
2021/11/08 02:28:45;;;;;;;31.65;8.40;;;9.40;78.90;;;;;;5106097;28;20172;-81
2021/11/08 02:31:17;;;;;;;26.83;8.32;;;9.40;79.10;;;;;;5083672;28;20188;-81
2021/11/08 02:33:44;;;;;;;21.60;7.35;;;9.40;79.20;;;;;;5084826;28;20690;-80
2021/11/08 02:36:12;;;;;;;24.08;7.47;;;9.40;79.20;;;;;;5085582;28;20683;-81
2021/11/08 02:38:46;;;;;;;29.55;8.25;;;9.40;79.40;;;;;;5083732;28;20180;-81
2021/11/08 02:41:13;;;;;;;18.08;6.68;;;9.40;79.30;;;;;;5083397;28;20211;-80
2021/11/08 02:43:39;;;;;;;17.25;6.97;;;9.50;79.30;;;;;;5083982;28;20184;-80
2021/11/08 02:46:11;;;;;;;21.85;8.73;;;9.60;79.00;;;;;;5084042;28;20176;-81
2021/11/08 02:48:38;;;;;;;20.23;7.38;;;9.60;78.80;;;;;;5085236;28;20670;-81
2021/11/08 02:53:37;;;;;;;22.65;9.45;;;9.60;78.90;;;;;;5084496;28;20192;-81
2021/11/08 02:56:06;;;;;;;15.43;7.63;;;9.60;78.40;;;;;;5085387;28;20173;-81
2021/11/08 02:58:32;;;;;;;21.38;8.32;;;9.60;78.40;;;;;;5098659;28;20183;-80
2021/11/08 03:00:58;;;;;;;19.17;7.03;;;9.50;78.50;;;;;;5088983;28;20231;-80
2021/11/08 03:03:33;;;;;;;33.20;7.60;;;9.60;78.50;;;;;;5087451;28;20200;-80
2021/11/08 03:06:04;;;;;;;18.40;6.30;;;9.80;78.40;;;;;;5104288;28;20432;-80
2021/11/08 03:08:30;;;;;;;22.55;7.20;;;9.70;77.90;;;;;;5112565;28;20171;-80
2021/11/08 03:10:57;;;;;;;29.63;8.17;;;9.70;78.00;;;;;;5110484;28;20233;-80
2021/11/08 03:13:24;;;;;;;21.88;7.10;;;9.70;78.20;;;;;;5125385;28;20187;-81
2021/11/08 03:16:04;;;;;;;38.85;9.93;;;9.70;78.10;;;;;;5119572;28;20251;-81
2021/11/08 03:18:38;;;;;;;18.00;6.30;;;9.70;78.10;;;;;;5112343;28;20176;-80
2021/11/08 03:21:13;;;;;;;22.58;8.52;;;9.70;78.10;;;;;;5108986;28;20258;-81
2021/11/08 03:23:39;;;;;;;28.95;7.20;;;9.60;78.00;;;;;;5106846;28;20248;-81
2021/11/08 03:26:33;;;;;;;25.27;7.28;;;9.60;78.10;;;;;;5107097;28;20191;-81
2021/11/08 03:28:59;;;;;;;26.98;7.72;;;9.50;78.30;;;;;;5122113;28;20239;-81
2021/11/08 03:31:26;;;;;;;19.80;7.65;;;9.40;78.30;;;;;;5118706;28;20220;-80
2021/11/08 03:33:53;;;;;;;25.27;6.78;;;9.20;78.50;;;;;;5122262;28;20184;-80
2021/11/08 03:36:19;;;;;;;34.30;8.73;;;9.20;78.90;;;;;;5122960;28;20168;-80
2021/11/08 03:38:45;;;;;;;25.20;7.88;;;9.20;79.10;;;;;;5102336;28;20176;-80
2021/11/08 03:41:11;;;;;;;18.40;6.50;;;9.30;79.20;;;;;;5098956;28;20199;-80
2021/11/08 03:43:38;;;;;;;19.63;8.27;;;9.40;79.10;;;;;;5067501;28;20196;-81
2021/11/08 03:46:04;;;;;;;22.90;8.05;;;9.30;79.10;;;;;;5082971;28;20426;-81
2021/11/08 03:48:30;;;;;;;32.85;10.00;;;9.30;79.20;;;;;;5093264;28;20184;-80
2021/11/08 03:50:56;;;;;;;33.45;7.82;;;9.30;79.20;;;;;;5103899;28;20172;-81
2021/11/08 03:53:22;;;;;;;33.40;7.38;;;9.20;79.30;;;;;;5101110;28;20216;-81
2021/11/08 03:55:49;;;;;;;25.65;6.95;;;9.00;79.50;;;;;;5101198;28;20298;-81
2021/11/08 03:58:15;;;;;;;21.98;6.72;;;8.80;80.00;;;;;;5102864;28;20248;-81
2021/11/08 04:00:41;;;;;;;17.55;7.10;;;8.70;81.40;;;;;;5101106;28;20203;-81
2021/11/08 04:03:09;;;;;;;32.55;7.20;;;8.70;81.00;;;;;;5101235;28;20172;-81
2021/11/08 04:05:38;;;;;;;32.00;8.23;;;8.80;81.00;;;;;;5089226;28;20187;-82
2021/11/08 04:08:08;;;;;;;17.65;7.18;;;8.60;81.10;;;;;;5082035;28;20172;-81
2021/11/08 04:10:37;;;;;;;31.35;7.35;;;8.60;81.30;;;;;;5082056;28;20201;-81
2021/11/08 04:13:04;;;;;;;23.42;7.65;;;8.60;81.70;;;;;;5107199;28;20191;-81
2021/11/08 04:15:36;;;;;;;25.27;7.45;;;8.50;81.80;;;;;;5122392;28;20160;-81
2021/11/08 04:18:03;;;;;;;24.95;8.57;;;8.60;82.00;;;;;;5120994;28;20263;-81
2021/11/08 04:20:28;;;;;;;22.95;7.30;;;8.60;81.90;;;;;;5107226;28;20567;-81
2021/11/08 04:22:54;;;;;;;30.63;8.00;;;8.70;81.90;;;;;;5080420;28;20177;-81
2021/11/08 04:25:23;;;;;;;29.60;8.33;;;8.60;82.50;;;;;;5080755;28;20228;-81
2021/11/08 04:27:50;;;;;;;28.30;7.28;;;8.50;82.00;;;;;;5081166;28;20450;-81
2021/11/08 04:30:16;;;;;;;17.77;6.72;;;8.50;82.10;;;;;;5080903;28;20553;-81
2021/11/08 04:32:51;;;;;;;22.47;7.10;;;8.50;82.30;;;;;;5080004;28;20180;-81
2021/11/08 04:35:24;;;;;;;23.13;8.57;;;8.50;82.40;;;;;;5079562;28;20427;-81
2021/11/08 04:38:09;;;;;;;25.48;7.00;;;8.50;82.50;;;;;;5078020;28;20235;-81
2021/11/08 04:49:00;;;;;;;22.50;6.47;;;9.00;81.70;;;;;;5085006;28;20156;-81
2021/11/08 04:51:55;;;;;;;21.45;7.32;;;9.10;81.50;;;;;;5081879;28;20188;-81
2021/11/08 05:21:59;;;;;;;30.63;8.50;;;8.80;80.60;;;;;;5099299;28;20207;-81
2021/11/08 05:24:37;;;;;;;30.10;6.90;;;8.60;80.80;;;;;;5099201;28;20199;-81
2021/11/08 05:30:05;;;;;;;18.98;7.10;;;8.60;81.30;;;;;;5099435;28;20156;-81
2021/11/08 05:32:33;;;;;;;25.65;6.57;;;8.60;81.40;;;;;;5077862;28;20180;-81
2021/11/08 05:34:59;;;;;;;27.10;8.35;;;8.50;81.70;;;;;;5077176;28;20205;-81
2021/11/08 05:37:25;;;;;;;35.05;6.82;;;8.50;81.90;;;;;;5078145;28;20212;-81
2021/11/08 05:39:57;;;;;;;27.02;7.53;;;8.50;82.00;;;;;;5078800;28;20237;-81
2021/11/08 05:42:24;;;;;;;24.70;7.40;;;8.60;82.00;;;;;;5077241;28;20655;-81
2021/11/08 05:44:51;;;;;;;28.25;7.15;;;8.50;82.00;;;;;;5076574;28;20188;-81
2021/11/08 05:47:17;;;;;;;24.60;8.05;;;8.60;81.90;;;;;;5079307;28;20176;-81
2021/11/08 05:49:44;;;;;;;23.02;7.93;;;8.60;81.80;;;;;;5079452;28;20629;-81
2021/11/08 05:52:12;;;;;;;28.83;7.70;;;8.60;81.90;;;;;;5077517;28;20712;-81
2021/11/08 05:54:38;;;;;;;37.17;8.90;;;8.50;82.00;;;;;;5059724;28;20207;-81
2021/11/08 06:51:20;;;;;;;18.52;7.30;;;8.70;80.80;;;;;;5113254;28;20183;-81
2021/11/08 06:53:53;;;;;;;22.48;6.75;;;8.80;80.90;;;;;;5097549;28;20220;-82
2021/11/08 06:56:25;;;;;;;25.15;7.68;;;9.00;80.70;;;;;;5097186;28;20172;-80
2021/11/08 06:58:50;;;;;;;17.50;6.70;;;9.10;80.40;;;;;;5098597;28;20168;-81
2021/11/08 07:01:16;;;;;;;25.63;7.30;;;9.10;79.80;;;;;;5099202;28;20227;-81
2021/11/08 07:03:42;;;;;;;19.70;7.63;;;9.10;79.60;;;;;;5098794;28;20192;-81
2021/11/08 07:06:08;;;;;;;33.53;8.30;;;9.00;79.60;;;;;;5098994;28;20176;-81
2021/11/08 07:08:33;;;;;;;27.63;8.47;;;9.00;79.80;;;;;;5078281;28;20204;-80
2021/11/08 07:10:59;;;;;;;21.93;8.20;;;8.70;80.00;;;;;;5077671;28;20534;-81
2021/11/08 07:13:25;;;;;;;18.40;6.80;;;8.90;81.10;;;;;;5106305;28;20802;-81
2021/11/08 07:15:51;;;;;;;25.85;7.50;;;9.10;80.00;;;;;;5123842;27;20186;-81
2021/11/08 07:18:17;;;;;;;22.63;6.70;;;9.20;79.60;;;;;;5124067;28;20168;-80
2021/11/08 07:20:43;;;;;;;17.48;7.10;;;9.00;79.40;;;;;;5123346;28;20598;-80
2021/11/08 07:23:09;;;;;;;27.13;7.50;;;8.90;79.80;;;;;;5123284;28;20167;-80
2021/11/08 07:25:35;;;;;;;24.33;6.80;;;9.10;79.70;;;;;;5123674;28;20188;-80
2021/11/08 07:28:04;;;;;;;32.73;6.40;;;9.30;79.40;;;;;;5123890;28;20168;-80
2021/11/08 07:30:31;;;;;;;21.55;8.15;;;9.10;79.30;;;;;;5122180;28;20284;-81
2021/11/08 07:32:56;;;;;;;27.58;6.82;;;8.90;79.60;;;;;;5122355;28;20179;-81
2021/11/08 07:35:23;;;;;;;23.50;7.27;;;8.90;80.00;;;;;;5122874;28;20221;-81
2021/11/08 07:37:48;;;;;;;23.30;6.72;;;8.80;80.10;;;;;;5121355;28;20183;-80
2021/11/08 07:40:14;;;;;;;26.97;8.10;;;8.80;80.40;;;;;;5121500;28;20190;-81
2021/11/08 07:42:42;;;;;;;25.27;7.97;;;8.90;80.50;;;;;;5123005;28;20206;-82
2021/11/08 07:45:08;;;;;;;27.65;9.60;;;8.90;80.70;;;;;;5120558;28;20187;-81
2021/11/08 07:47:34;;;;;;;25.83;7.45;;;9.00;80.40;;;;;;5103212;28;20556;-81
2021/11/08 07:50:00;;;;;;;28.57;9.67;;;9.00;80.50;;;;;;5104917;28;20179;-81
2021/11/08 07:52:25;;;;;;;24.73;9.30;;;9.10;80.70;;;;;;5102394;28;20182;-81
2021/11/08 07:54:51;;;;;;;29.23;8.80;;;9.10;80.70;;;;;;5103684;28;20191;-81
2021/11/08 07:57:17;;;;;;;25.52;8.00;;;9.00;80.50;;;;;;5095492;28;20199;-81
2021/11/08 07:59:45;;;;;;;26.87;8.10;;;8.90;80.70;;;;;;5115671;28;20551;-81
2021/11/08 08:02:11;;;;;;;18.40;7.47;;;9.00;80.90;;;;;;5113544;28;20453;-81
2021/11/08 08:04:37;;;;;;;28.00;8.15;;;9.20;80.80;;;;;;5112294;28;20196;-81
2021/11/08 08:07:03;;;;;;;19.57;7.30;;;9.50;80.60;;;;;;5109447;28;20186;-81
2021/11/08 08:09:29;;;;;;;24.15;8.95;;;9.30;80.10;;;;;;5104310;28;20410;-81
2021/11/08 08:11:54;;;;;;;20.17;9.10;;;9.40;80.10;;;;;;5116018;28;20194;-81
2021/11/08 08:14:20;;;;;;;24.37;10.27;;;9.40;79.90;;;;;;5132914;28;20453;-81
2021/11/08 08:16:48;;;;;;;28.83;11.48;;;9.60;79.90;;;;;;5126214;28;20200;-81
2021/11/08 08:19:14;;;;;;;28.90;9.17;;;9.70;79.70;;;;;;5090536;28;20196;-82
2021/11/08 08:21:40;;;;;;;25.80;9.02;;;9.90;79.40;;;;;;5117203;28;20449;-82
2021/11/08 08:24:05;;;;;;;37.17;10.77;;;10.00;78.90;;;;;;5113086;28;20272;-82
2021/11/08 08:26:34;;;;;;;27.13;8.80;;;10.30;78.30;;;;;;5112381;28;20416;-83
2021/11/08 08:29:03;;;;;;;26.05;9.00;;;10.30;77.70;;;;;;5102853;28;20175;-82
2021/11/08 08:31:31;;;;;;;24.23;8.82;;;10.00;77.40;;;;;;5103090;28;20646;-83
2021/11/08 08:33:56;;;;;;;22.77;8.57;;;10.10;77.70;;;;;;5105683;28;20200;-82
2021/11/08 08:36:22;;;;;;;27.13;11.30;;;10.00;77.50;;;;;;5117086;28;20183;-82
2021/11/08 08:38:49;;;;;;;36.47;11.18;;;10.10;77.70;;;;;;5117237;28;20417;-81
2021/11/08 08:41:15;;;;;;;31.88;10.40;;;10.10;77.70;;;;;;5116868;28;20208;-82
2021/11/08 08:43:40;;;;;;;29.27;9.27;;;10.10;77.40;;;;;;5117152;28;20681;-81
2021/11/08 08:46:06;;;;;;;26.47;10.57;;;10.10;77.40;;;;;;5116776;28;20418;-81
2021/11/08 08:48:32;;;;;;;27.02;12.00;;;10.10;77.20;;;;;;5117087;28;20171;-81
2021/11/08 08:50:59;;;;;;;47.77;12.33;;;10.20;77.30;;;;;;5113566;28;20213;-81
2021/11/08 08:53:26;;;;;;;30.38;10.40;;;10.20;77.10;;;;;;5111762;28;20870;-81
2021/11/08 08:55:52;;;;;;;37.78;9.82;;;10.20;77.00;;;;;;5100950;28;20233;-81
2021/11/08 08:58:18;;;;;;;28.60;9.43;;;10.30;76.90;;;;;;5100507;28;20172;-81
2021/11/08 09:00:47;;;;;;;26.50;8.50;;;10.20;76.60;;;;;;5098575;28;20501;-81
2021/11/08 09:03:14;;;;;;;23.17;9.02;;;10.10;76.80;;;;;;5099001;28;20414;-81
2021/11/08 09:05:39;;;;;;;26.80;10.23;;;10.20;76.80;;;;;;5100096;28;20255;-81
2021/11/08 09:08:05;;;;;;;32.10;10.13;;;10.20;76.80;;;;;;5098335;28;20206;-81
2021/11/08 09:10:34;;;;;;;31.70;7.63;;;10.10;76.80;;;;;;5098808;28;20168;-81
2021/11/08 09:13:01;;;;;;;26.75;9.88;;;10.20;76.80;;;;;;5110077;28;20186;-81
2021/11/08 09:15:29;;;;;;;21.55;9.70;;;10.10;76.80;;;;;;5120077;28;20216;-81
2021/11/08 09:17:56;;;;;;;29.90;10.45;;;10.10;77.00;;;;;;5118802;28;20186;-81
2021/11/08 09:20:22;;;;;;;29.25;10.40;;;10.20;77.00;;;;;;5119517;28;20222;-80
2021/11/08 09:22:50;;;;;;;26.73;9.07;;;10.30;77.10;;;;;;5107048;28;20203;-81
2021/11/08 09:25:19;;;;;;;21.83;8.85;;;10.50;76.80;;;;;;5097778;28;20438;-81
2021/11/08 09:27:46;;;;;;;64.10;12.60;;;10.80;76.40;;;;;;5098020;28;20248;-81
2021/11/08 09:30:15;;;;;;;67.07;12.57;;;10.90;75.60;;;;;;5098019;28;20168;-82
2021/11/08 09:32:42;;;;;;;67.82;14.38;;;11.00;75.20;;;;;;5098254;28;20190;-81
2021/11/08 09:35:09;;;;;;;65.80;12.80;;;11.00;74.90;;;;;;5096852;28;20273;-81
2021/11/08 09:37:42;;;;;;;76.22;14.10;;;10.90;74.80;;;;;;5097629;28;20186;-81
2021/11/08 09:40:08;;;;;;;56.88;11.93;;;10.90;74.80;;;;;;5098026;28;20183;-81
2021/11/08 09:42:35;;;;;;;63.50;15.02;;;11.00;74.60;;;;;;5097626;28;20210;-80
2021/11/08 09:45:06;;;;;;;27.80;10.95;;;11.00;74.50;;;;;;5099112;28;20217;-81
2021/11/08 09:47:33;;;;;;;20.45;9.20;;;11.00;74.50;;;;;;5081158;28;20172;-81
2021/11/08 09:50:03;;;;;;;25.77;8.05;;;11.00;74.40;;;;;;5097678;28;20180;-81
2021/11/08 09:52:31;;;;;;;20.83;8.43;;;11.00;74.30;;;;;;5081448;28;20260;-81
2021/11/08 09:55:02;;;;;;;17.63;9.10;;;11.30;74.40;;;;;;5097822;28;20196;-81
2021/11/08 09:57:29;;;;;;;27.85;8.70;;;11.50;74.00;;;;;;5081472;28;20236;-81
2021/11/08 09:59:55;;;;;;;23.10;8.93;;;11.70;73.20;;;;;;5098259;28;20186;-81
2021/11/08 10:02:21;;;;;;;30.63;9.88;;;11.50;73.00;;;;;;5098864;28;20236;-81
2021/11/08 10:04:48;;;;;;;23.77;9.20;;;11.60;73.10;;;;;;5098843;28;20267;-81
2021/11/08 10:07:15;;;;;;;29.17;9.35;;;11.70;72.60;;;;;;5099166;28;20402;-80
2021/11/08 10:09:41;;;;;;;29.95;10.23;;;11.80;72.30;;;;;;5097931;28;20183;-81
2021/11/08 10:12:10;;;;;;;20.10;8.40;;;12.00;71.80;;;;;;5100490;28;20635;-81
2021/11/08 10:14:35;;;;;;;28.58;8.25;;;12.00;71.50;;;;;;5118414;28;20682;-80
2021/11/08 10:17:01;;;;;;;27.70;9.30;;;12.00;71.50;;;;;;5118888;28;20185;-81
2021/11/08 10:19:31;;;;;;;28.85;11.40;;;12.00;71.50;;;;;;5118812;28;20424;-80
2021/11/08 10:21:58;;;;;;;24.10;8.43;;;12.10;71.20;;;;;;5114149;28;20223;-81
2021/11/08 10:24:30;;;;;;;21.33;8.40;;;12.00;71.10;;;;;;5098091;28;20194;-81
2021/11/08 10:27:00;;;;;;;25.08;7.32;;;12.10;71.30;;;;;;5097736;28;20768;-81
2021/11/08 10:29:27;;;;;;;23.25;7.72;;;12.10;71.10;;;;;;5098534;28;20175;-81
2021/11/08 10:31:56;;;;;;;16.73;6.95;;;12.40;70.80;;;;;;5097434;28;20180;-81
2021/11/08 10:34:24;;;;;;;18.58;6.65;;;12.30;70.50;;;;;;5097748;28;20187;-82
2021/11/08 10:37:05;;;;;;;19.55;6.55;;;12.20;70.30;;;;;;5098081;28;20183;-81
2021/11/08 10:39:35;;;;;;;22.40;6.15;;;12.20;69.90;;;;;;5099730;28;20653;-81
2021/11/08 10:42:01;;;;;;;17.00;6.25;;;12.20;70.60;;;;;;5098075;28;20268;-81
2021/11/08 10:44:29;;;;;;;25.73;8.05;;;12.20;69.80;;;;;;5098261;28;20219;-81
2021/11/08 10:47:09;;;;;;;20.73;6.20;;;12.20;69.80;;;;;;5100689;28;20171;-81
2021/11/08 10:49:45;;;;;;;17.48;5.82;;;12.20;69.50;;;;;;5103839;28;20148;-81
2021/11/08 10:52:14;;;;;;;20.85;6.50;;;12.30;69.40;;;;;;5102720;28;20183;-81
2021/11/08 10:54:54;;;;;;;23.10;7.18;;;12.30;69.20;;;;;;5100412;28;20207;-81
2021/11/08 10:57:25;;;;;;;13.65;6.10;;;12.30;69.20;;;;;;5101829;28;20201;-81
2021/11/08 10:59:55;;;;;;;16.20;6.45;;;12.40;68.70;;;;;;5101485;28;20190;-81
2021/11/08 11:02:31;;;;;;;26.65;7.70;;;12.30;68.80;;;;;;5102504;28;20200;-81
2021/11/08 11:05:02;;;;;;;14.10;5.30;;;12.40;68.90;;;;;;5101255;28;20217;-81
2021/11/08 11:07:35;;;;;;;12.63;5.60;;;12.50;69.00;;;;;;5118052;28;20172;-81
2021/11/08 11:10:08;;;;;;;19.25;7.75;;;12.50;69.00;;;;;;5118096;28;20178;-81
2021/11/08 11:12:34;;;;;;;20.52;6.20;;;12.50;69.10;;;;;;5121463;28;20193;-80
2021/11/08 11:15:09;;;;;;;15.65;5.88;;;12.50;69.10;;;;;;5127557;28;20199;-81
2021/11/08 11:17:42;;;;;;;16.33;6.72;;;12.60;68.80;;;;;;5123288;28;20178;-81
2021/11/08 11:20:11;;;;;;;15.15;5.68;;;12.40;68.00;;;;;;5125651;28;20206;-81
2021/11/08 11:22:43;;;;;;;14.35;7.50;;;12.30;68.50;;;;;;5123080;28;20230;-81
2021/11/08 11:25:12;;;;;;;20.48;7.47;;;12.40;69.10;;;;;;5121519;28;20222;-81
2021/11/08 11:27:48;;;;;;;23.17;8.18;;;12.50;69.10;;;;;;5120334;28;20175;-82
2021/11/08 11:30:28;;;;;;;14.68;6.25;;;12.60;69.10;;;;;;5119805;28;20178;-81
2021/11/08 11:33:01;;;;;;;11.10;6.00;;;12.50;69.00;;;;;;5119528;28;20175;-81
2021/11/08 11:35:30;;;;;;;25.58;5.93;;;12.50;68.70;;;;;;5121019;28;20324;-81
2021/11/08 11:38:02;;;;;;;18.85;7.15;;;12.50;68.90;;;;;;5120009;27;20175;-81
2021/11/08 11:40:31;;;;;;;18.35;6.80;;;12.50;68.80;;;;;;5117519;28;20187;-81
2021/11/08 11:43:07;;;;;;;18.88;5.70;;;12.60;68.30;;;;;;5120938;28;20701;-81
2021/11/08 11:45:46;;;;;;;23.15;9.30;;;12.80;68.10;;;;;;5122512;28;20646;-81
2021/11/08 11:48:13;;;;;;;22.10;6.75;;;12.60;67.40;;;;;;5123200;28;20167;-81
2021/11/08 11:50:38;;;;;;;14.23;6.05;;;12.80;67.60;;;;;;5121441;28;20224;-81
2021/11/08 11:53:06;;;;;;;23.90;6.43;;;12.90;67.70;;;;;;5121503;28;20167;-81
2021/11/08 11:55:36;;;;;;;25.25;6.82;;;12.80;67.60;;;;;;5121622;28;20278;-81
2021/11/08 11:58:03;;;;;;;23.23;6.18;;;12.90;67.80;;;;;;5122345;28;20167;-81
2021/11/08 12:00:33;;;;;;;15.55;5.30;;;13.00;67.40;;;;;;5105463;28;20202;-81
2021/11/08 12:02:59;;;;;;;16.55;5.45;;;12.80;66.80;;;;;;5101193;28;20235;-81
2021/11/08 12:05:26;;;;;;;11.52;5.00;;;12.70;66.80;;;;;;5100353;28;20229;-81
2021/11/08 12:07:56;;;;;;;11.02;5.07;;;12.90;67.10;;;;;;5100047;28;20176;-81
2021/11/08 12:10:23;;;;;;;13.55;4.65;;;12.90;67.50;;;;;;5100270;28;20267;-82
2021/11/08 12:12:49;;;;;;;18.95;5.25;;;13.00;66.70;;;;;;5099409;28;20199;-81
2021/11/08 12:15:23;;;;;;;22.00;4.72;;;13.00;65.60;;;;;;5099484;28;20227;-81
2021/11/08 12:17:49;;;;;;;17.52;4.68;;;13.00;65.00;;;;;;5103351;28;20183;-81
2021/11/08 12:20:17;;;;;;;8.43;4.93;;;13.10;64.90;;;;;;5099858;28;20195;-81
2021/11/08 12:22:43;;;;;;;15.15;5.25;;;13.30;64.80;;;;;;5099652;28;20282;-81
2021/11/08 12:25:13;;;;;;;16.05;4.78;;;13.40;64.40;;;;;;5099422;28;20225;-81
2021/11/08 12:27:59;;;;;;;14.50;4.75;;;13.40;64.00;;;;;;5100500;28;20176;-82
2021/11/08 12:30:32;;;;;;;15.65;4.85;;;13.00;63.90;;;;;;5049964;28;20183;-81
2021/11/08 12:33:02;;;;;;;24.58;5.40;;;12.90;63.70;;;;;;5100889;28;20198;-81
2021/11/08 12:35:37;;;;;;;24.45;6.18;;;12.90;63.90;;;;;;5099032;28;20571;-81
2021/11/08 12:38:17;;;;;;;19.08;4.55;;;13.00;63.90;;;;;;5100146;28;20206;-81
2021/11/08 12:40:43;;;;;;;16.35;5.32;;;12.90;62.60;;;;;;5099787;28;20179;-81
2021/11/08 12:43:09;;;;;;;14.80;4.50;;;12.80;62.20;;;;;;5100606;28;20202;-81
2021/11/08 12:45:41;;;;;;;12.65;6.13;;;12.80;63.00;;;;;;5100749;28;20506;-81
2021/11/08 12:48:13;;;;;;;10.55;4.50;;;12.70;63.70;;;;;;5101016;28;20202;-81
2021/11/08 12:50:53;;;;;;;19.58;6.40;;;12.70;63.70;;;;;;5099642;28;20183;-81
2021/11/08 12:53:31;;;;;;;13.55;5.15;;;12.70;63.90;;;;;;5098046;28;20172;-81
2021/11/08 12:55:59;;;;;;;14.18;4.45;;;12.80;64.20;;;;;;5099629;28;20182;-81
2021/11/08 12:58:33;;;;;;;23.85;5.05;;;12.90;64.00;;;;;;5100231;28;20167;-81
2021/11/08 13:01:00;;;;;;;17.17;4.95;;;12.80;63.30;;;;;;5080576;28;20179;-82
2021/11/08 13:03:35;;;;;;;19.05;5.30;;;12.90;63.10;;;;;;5079534;28;20197;-82
2021/11/08 13:06:04;;;;;;;31.23;6.05;;;12.70;63.10;;;;;;5080189;28;20658;-83
2021/11/08 13:08:33;;;;;;;22.55;4.90;;;12.60;63.60;;;;;;5098157;28;20179;-83
2021/11/08 13:11:09;;;;;;;11.15;5.22;;;12.60;63.70;;;;;;5099022;28;20172;-83
2021/11/08 13:13:36;;;;;;;10.60;4.50;;;12.70;63.70;;;;;;5114358;28;20229;-83
2021/11/08 13:16:13;;;;;;;25.58;5.00;;;12.70;64.00;;;;;;5119513;28;20179;-83
2021/11/08 13:18:42;;;;;;;12.02;4.30;;;12.80;63.90;;;;;;5119754;28;20159;-83
2021/11/08 13:21:10;;;;;;;12.80;4.65;;;12.90;63.80;;;;;;5113747;28;20722;-82
2021/11/08 13:23:40;;;;;;;16.10;4.20;;;13.00;63.40;;;;;;5098133;28;20191;-82
2021/11/08 13:26:07;;;;;;;11.02;3.92;;;13.10;63.10;;;;;;5098640;28;20211;-82
2021/11/08 13:28:36;;;;;;;8.73;3.08;;;13.00;62.70;;;;;;5098650;28;20221;-82
2021/11/08 13:31:11;;;;;;;13.32;4.18;;;13.10;62.60;;;;;;5099509;28;20176;-82
2021/11/08 13:33:41;;;;;;;13.02;4.20;;;13.50;60.40;;;;;;5097943;28;20202;-82
2021/11/08 13:36:09;;;;;;;10.40;4.35;;;13.50;59.00;;;;;;5099388;28;20179;-82
2021/11/08 13:38:41;;;;;;;13.18;3.67;;;13.30;60.80;;;;;;5099681;28;20190;-82
2021/11/08 13:41:08;;;;;;;12.82;4.18;;;13.20;61.30;;;;;;5099148;28;20578;-82
2021/11/08 13:43:59;;;;;;;10.30;3.42;;;13.00;60.20;;;;;;5098226;28;20671;-82
2021/11/08 13:46:40;;;;;;;16.55;4.45;;;13.00;59.70;;;;;;5090086;28;20187;-82
2021/11/08 13:49:08;;;;;;;10.73;2.90;;;13.00;59.10;;;;;;5098889;28;20176;-82
2021/11/08 13:51:35;;;;;;;24.20;6.05;;;12.90;59.30;;;;;;5098089;28;20183;-81
2021/11/08 13:54:22;;;;;;;18.65;4.68;;;12.80;58.80;;;;;;5101389;28;20215;-81
2021/11/08 13:57:10;;;;;;;11.90;4.32;;;12.70;59.10;;;;;;5099102;28;20182;-81
2021/11/08 13:59:46;;;;;;;13.38;4.85;;;12.70;59.00;;;;;;5097799;28;20218;-81
2021/11/08 14:02:20;;;;;;;13.20;4.60;;;12.70;59.70;;;;;;5098114;28;20199;-82
2021/11/08 14:04:50;;;;;;;17.80;5.30;;;12.70;60.00;;;;;;5077100;28;20197;-82
2021/11/08 14:07:22;;;;;;;9.88;5.20;;;12.70;60.20;;;;;;5079536;28;20704;-82
2021/11/08 14:09:48;;;;;;;22.10;4.55;;;12.70;60.30;;;;;;5079523;28;20176;-81
2021/11/08 14:12:19;;;;;;;29.42;7.70;;;12.50;60.30;;;;;;5096373;28;20206;-81
2021/11/08 14:14:49;;;;;;;11.52;4.60;;;12.60;60.60;;;;;;5099649;28;20569;-80
2021/11/08 14:17:24;;;;;;;24.15;6.55;;;12.60;61.00;;;;;;5100394;28;20164;-81
2021/11/08 14:20:03;;;;;;;13.50;6.07;;;12.70;61.20;;;;;;5093012;28;20183;-80
2021/11/08 14:22:31;;;;;;;20.38;6.63;;;12.70;61.80;;;;;;5093106;28;20210;-80
2021/11/08 14:24:57;;;;;;;24.85;7.55;;;12.70;62.30;;;;;;5102917;28;20195;-81